sensor_id;sensor_type;location;lat;lon;timestamp;P1;P2;P0
70657;PMS5003;58226;51.738;5.852;2022-08-21T00:00:33;20.67;20.00;12.67
70657;PMS5003;58226;51.738;5.852;2022-08-21T00:01:33;28.33;28.00;15.00
70657;PMS5003;58226;51.738;5.852;2022-08-21T00:02:33;25.67;24.67;15.00
70657;PMS5003;58226;51.738;5.852;2022-08-21T00:03:33;27.67;27.00;17.00
70657;PMS5003;58226;51.738;5.852;2022-08-21T00:04:34;28.33;27.67;18.00
70657;PMS5003;58226;51.738;5.852;2022-08-21T00:05:36;21.67;21.67;15.00
70657;PMS5003;58226;51.738;5.852;2022-08-21T00:06:37;25.50;23.75;15.75
70657;PMS5003;58226;51.738;5.852;2022-08-21T00:07:37;22.00;21.33;14.00
70657;PMS5003;58226;51.738;5.852;2022-08-21T00:08:37;25.33;24.33;14.00
70657;PMS5003;58226;51.738;5.852;2022-08-21T00:09:38;31.00;27.67;19.00
70657;PMS5003;58226;51.738;5.852;2022-08-21T00:10:39;26.33;23.67;14.00
70657;PMS5003;58226;51.738;5.852;2022-08-21T00:11:39;21.75;21.75;14.00
70657;PMS5003;58226;51.738;5.852;2022-08-21T00:12:40;30.33;26.67;16.67
70657;PMS5003;58226;51.738;5.852;2022-08-21T00:13:40;26.00;26.00;16.33
70657;PMS5003;58226;51.738;5.852;2022-08-21T00:14:41;27.33;25.67;15.00
70657;PMS5003;58226;51.738;5.852;2022-08-21T00:15:41;26.00;24.67;12.33
70657;PMS5003;58226;51.738;5.852;2022-08-21T00:16:41;27.67;25.00;14.33
70657;PMS5003;58226;51.738;5.852;2022-08-21T00:17:42;26.00;25.00;18.00
70657;PMS5003;58226;51.738;5.852;2022-08-21T00:18:42;23.67;22.67;15.33
70657;PMS5003;58226;51.738;5.852;2022-08-21T00:19:42;25.33;22.00;14.00
70657;PMS5003;58226;51.738;5.852;2022-08-21T00:20:43;25.00;24.00;16.67
70657;PMS5003;58226;51.738;5.852;2022-08-21T00:21:44;24.67;24.67;17.33
70657;PMS5003;58226;51.738;5.852;2022-08-21T00:22:44;21.67;21.67;14.67
70657;PMS5003;58226;51.738;5.852;2022-08-21T00:23:45;24.75;24.00;15.00
70657;PMS5003;58226;51.738;5.852;2022-08-21T00:24:45;25.00;23.67;14.33
70657;PMS5003;58226;51.738;5.852;2022-08-21T00:25:45;29.67;27.33;18.00
70657;PMS5003;58226;51.738;5.852;2022-08-21T00:26:46;28.00;28.00;17.00
70657;PMS5003;58226;51.738;5.852;2022-08-21T00:27:47;29.00;28.33;17.67
70657;PMS5003;58226;51.738;5.852;2022-08-21T00:28:47;27.33;26.33;17.33
70657;PMS5003;58226;51.738;5.852;2022-08-21T00:29:48;32.25;29.25;19.00
70657;PMS5003;58226;51.738;5.852;2022-08-21T00:30:49;31.67;30.00;21.33
70657;PMS5003;58226;51.738;5.852;2022-08-21T00:31:49;26.67;24.33;13.67
70657;PMS5003;58226;51.738;5.852;2022-08-21T00:32:50;31.33;31.00;19.00
70657;PMS5003;58226;51.738;5.852;2022-08-21T00:33:50;28.50;25.50;16.50
70657;PMS5003;58226;51.738;5.852;2022-08-21T00:34:51;30.00;26.00;15.00
70657;PMS5003;58226;51.738;5.852;2022-08-21T00:35:52;27.67;23.33;12.67
70657;PMS5003;58226;51.738;5.852;2022-08-21T00:36:52;28.33;26.67;16.00
70657;PMS5003;58226;51.738;5.852;2022-08-21T00:37:52;27.33;25.67;16.67
70657;PMS5003;58226;51.738;5.852;2022-08-21T00:38:53;24.67;23.67;16.33
70657;PMS5003;58226;51.738;5.852;2022-08-21T00:39:53;30.67;27.67;18.67
70657;PMS5003;58226;51.738;5.852;2022-08-21T00:40:54;29.33;28.67;17.33
70657;PMS5003;58226;51.738;5.852;2022-08-21T00:41:55;26.25;25.00;15.50
70657;PMS5003;58226;51.738;5.852;2022-08-21T00:42:55;29.33;28.33;15.67
70657;PMS5003;58226;51.738;5.852;2022-08-21T00:43:56;29.00;27.67;17.67
70657;PMS5003;58226;51.738;5.852;2022-08-21T00:44:56;27.67;25.67;15.00
70657;PMS5003;58226;51.738;5.852;2022-08-21T00:45:59;33.00;30.33;18.00
70657;PMS5003;58226;51.738;5.852;2022-08-21T00:47:00;36.75;31.25;18.50
70657;PMS5003;58226;51.738;5.852;2022-08-21T00:48:00;28.00;25.67;15.67
70657;PMS5003;58226;51.738;5.852;2022-08-21T00:49:00;30.00;27.00;17.67
70657;PMS5003;58226;51.738;5.852;2022-08-21T00:50:00;18.67;17.67;14.00
70657;PMS5003;58226;51.738;5.852;2022-08-21T00:52:05;27.50;26.75;16.25
70657;PMS5003;58226;51.738;5.852;2022-08-21T00:53:06;27.00;27.00;16.25
70657;PMS5003;58226;51.738;5.852;2022-08-21T00:54:07;32.00;29.75;19.25
70657;PMS5003;58226;51.738;5.852;2022-08-21T00:55:09;24.00;21.00;13.00
70657;PMS5003;58226;51.738;5.852;2022-08-21T00:56:11;32.50;29.00;18.00
70657;PMS5003;58226;51.738;5.852;2022-08-21T00:57:32;28.00;26.75;17.00
70657;PMS5003;58226;51.738;5.852;2022-08-21T00:58:33;20.75;20.75;7.00
70657;PMS5003;58226;51.738;5.852;2022-08-21T00:59:36;27.50;27.25;17.00
70657;PMS5003;58226;51.738;5.852;2022-08-21T01:00:38;26.75;23.25;16.00
70657;PMS5003;58226;51.738;5.852;2022-08-21T01:01:38;28.25;27.25;18.75
70657;PMS5003;58226;51.738;5.852;2022-08-21T01:02:38;35.33;31.67;18.00
70657;PMS5003;58226;51.738;5.852;2022-08-21T01:03:39;30.00;29.33;17.00
70657;PMS5003;58226;51.738;5.852;2022-08-21T01:04:39;29.67;27.33;19.00
70657;PMS5003;58226;51.738;5.852;2022-08-21T01:05:40;24.67;22.67;13.67
70657;PMS5003;58226;51.738;5.852;2022-08-21T01:06:40;25.33;24.33;14.00
70657;PMS5003;58226;51.738;5.852;2022-08-21T01:07:41;31.00;29.00;18.33
70657;PMS5003;58226;51.738;5.852;2022-08-21T01:08:41;29.50;29.00;20.00
70657;PMS5003;58226;51.738;5.852;2022-08-21T01:09:42;31.33;30.33;18.67
70657;PMS5003;58226;51.738;5.852;2022-08-21T01:10:42;29.00;29.00;16.00
70657;PMS5003;58226;51.738;5.852;2022-08-21T01:11:43;29.00;25.67;15.67
70657;PMS5003;58226;51.738;5.852;2022-08-21T01:12:43;29.00;28.00;17.00
70657;PMS5003;58226;51.738;5.852;2022-08-21T01:13:43;28.33;27.00;17.33
70657;PMS5003;58226;51.738;5.852;2022-08-21T01:14:46;27.50;27.25;17.00
70657;PMS5003;58226;51.738;5.852;2022-08-21T01:15:47;18.33;18.33;9.00
70657;PMS5003;58226;51.738;5.852;2022-08-21T01:16:50;26.75;26.25;16.50
70657;PMS5003;58226;51.738;5.852;2022-08-21T01:17:51;35.00;34.00;19.50
70657;PMS5003;58226;51.738;5.852;2022-08-21T01:18:51;33.67;32.33;22.00
70657;PMS5003;58226;51.738;5.852;2022-08-21T01:19:51;30.67;29.33;20.33
70657;PMS5003;58226;51.738;5.852;2022-08-21T01:21:02;28.33;27.33;17.67
70657;PMS5003;58226;51.738;5.852;2022-08-21T01:22:02;33.25;30.25;18.00
70657;PMS5003;58226;51.738;5.852;2022-08-21T01:23:03;29.67;27.67;18.67
70657;PMS5003;58226;51.738;5.852;2022-08-21T01:24:04;31.75;30.50;19.00
70657;PMS5003;58226;51.738;5.852;2022-08-21T01:25:06;29.50;28.75;17.75
70657;PMS5003;58226;51.738;5.852;2022-08-21T01:26:07;25.00;24.00;16.75
70657;PMS5003;58226;51.738;5.852;2022-08-21T01:27:07;32.33;30.00;20.00
70657;PMS5003;58226;51.738;5.852;2022-08-21T01:28:10;30.67;30.00;19.33
70657;PMS5003;58226;51.738;5.852;2022-08-21T01:29:15;34.00;31.75;19.75
70657;PMS5003;58226;51.738;5.852;2022-08-21T01:30:19;32.50;30.25;16.75
70657;PMS5003;58226;51.738;5.852;2022-08-21T01:31:21;25.25;24.50;17.50
70657;PMS5003;58226;51.738;5.852;2022-08-21T01:32:23;30.75;30.25;21.25
70657;PMS5003;58226;51.738;5.852;2022-08-21T01:33:24;35.00;32.75;21.00
70657;PMS5003;58226;51.738;5.852;2022-08-21T01:34:24;36.33;34.67;21.00
70657;PMS5003;58226;51.738;5.852;2022-08-21T01:35:25;31.67;31.33;19.33
70657;PMS5003;58226;51.738;5.852;2022-08-21T01:36:25;32.67;31.67;19.00
70657;PMS5003;58226;51.738;5.852;2022-08-21T01:37:26;32.33;31.67;18.67
70657;PMS5003;58226;51.738;5.852;2022-08-21T01:38:26;32.00;29.67;21.33
70657;PMS5003;58226;51.738;5.852;2022-08-21T01:39:26;29.00;26.67;14.00
70657;PMS5003;58226;51.738;5.852;2022-08-21T01:40:27;34.33;32.67;19.33
70657;PMS5003;58226;51.738;5.852;2022-08-21T01:41:27;32.67;29.33;19.00
70657;PMS5003;58226;51.738;5.852;2022-08-21T01:42:27;31.33;30.00;19.67
70657;PMS5003;58226;51.738;5.852;2022-08-21T01:43:28;32.33;31.33;18.67
70657;PMS5003;58226;51.738;5.852;2022-08-21T01:44:28;35.00;35.00;19.67
70657;PMS5003;58226;51.738;5.852;2022-08-21T01:45:28;28.67;27.33;14.67
70657;PMS5003;58226;51.738;5.852;2022-08-21T01:46:28;35.67;34.00;20.00
70657;PMS5003;58226;51.738;5.852;2022-08-21T01:47:29;30.33;30.00;18.00
70657;PMS5003;58226;51.738;5.852;2022-08-21T01:48:29;25.67;25.00;15.00
70657;PMS5003;58226;51.738;5.852;2022-08-21T01:49:29;36.00;34.67;20.00
70657;PMS5003;58226;51.738;5.852;2022-08-21T01:50:29;30.00;28.67;18.33
70657;PMS5003;58226;51.738;5.852;2022-08-21T01:51:30;36.00;35.67;19.00
70657;PMS5003;58226;51.738;5.852;2022-08-21T01:52:30;31.33;29.33;20.67
70657;PMS5003;58226;51.738;5.852;2022-08-21T01:53:30;31.00;28.33;17.33
70657;PMS5003;58226;51.738;5.852;2022-08-21T01:54:31;34.33;31.33;20.67
70657;PMS5003;58226;51.738;5.852;2022-08-21T01:55:31;30.33;28.67;15.67
70657;PMS5003;58226;51.738;5.852;2022-08-21T01:56:35;29.67;27.33;16.00
70657;PMS5003;58226;51.738;5.852;2022-08-21T01:57:36;35.50;32.75;16.50
70657;PMS5003;58226;51.738;5.852;2022-08-21T01:58:37;32.33;31.00;18.67
70657;PMS5003;58226;51.738;5.852;2022-08-21T01:59:37;31.67;31.67;18.33
70657;PMS5003;58226;51.738;5.852;2022-08-21T02:00:37;34.33;32.00;21.00
70657;PMS5003;58226;51.738;5.852;2022-08-21T02:01:37;33.67;31.33;19.33
70657;PMS5003;58226;51.738;5.852;2022-08-21T02:02:39;31.00;30.00;19.75
70657;PMS5003;58226;51.738;5.852;2022-08-21T02:03:40;36.75;32.50;20.50
70657;PMS5003;58226;51.738;5.852;2022-08-21T02:04:41;34.00;30.67;19.67
70657;PMS5003;58226;51.738;5.852;2022-08-21T02:05:41;31.67;30.67;20.00
70657;PMS5003;58226;51.738;5.852;2022-08-21T02:06:41;34.33;32.67;20.67
70657;PMS5003;58226;51.738;5.852;2022-08-21T02:07:43;33.33;31.00;18.00
70657;PMS5003;58226;51.738;5.852;2022-08-21T02:08:44;31.50;30.25;20.00
70657;PMS5003;58226;51.738;5.852;2022-08-21T02:09:44;37.33;34.67;19.00
70657;PMS5003;58226;51.738;5.852;2022-08-21T02:10:44;36.00;34.00;19.67
70657;PMS5003;58226;51.738;5.852;2022-08-21T02:11:46;32.75;31.50;21.50
70657;PMS5003;58226;51.738;5.852;2022-08-21T02:12:46;38.33;33.33;19.67
70657;PMS5003;58226;51.738;5.852;2022-08-21T02:13:47;32.33;32.00;20.00
70657;PMS5003;58226;51.738;5.852;2022-08-21T02:14:47;32.33;31.33;21.00
70657;PMS5003;58226;51.738;5.852;2022-08-21T02:15:47;24.00;22.67;15.00
70657;PMS5003;58226;51.738;5.852;2022-08-21T02:16:47;24.67;24.00;15.67
70657;PMS5003;58226;51.738;5.852;2022-08-21T02:17:50;34.33;34.00;18.00
70657;PMS5003;58226;51.738;5.852;2022-08-21T02:18:51;27.00;27.00;17.00
70657;PMS5003;58226;51.738;5.852;2022-08-21T02:19:51;36.33;32.67;19.33
70657;PMS5003;58226;51.738;5.852;2022-08-21T02:20:51;32.67;32.00;18.33
70657;PMS5003;58226;51.738;5.852;2022-08-21T02:21:52;36.33;34.67;22.00
70657;PMS5003;58226;51.738;5.852;2022-08-21T02:22:52;33.67;33.33;19.33
70657;PMS5003;58226;51.738;5.852;2022-08-21T02:23:52;37.00;36.00;23.67
70657;PMS5003;58226;51.738;5.852;2022-08-21T02:24:52;35.00;34.67;19.33
70657;PMS5003;58226;51.738;5.852;2022-08-21T02:25:54;37.00;35.00;21.00
70657;PMS5003;58226;51.738;5.852;2022-08-21T02:26:54;41.25;35.75;22.25
70657;PMS5003;58226;51.738;5.852;2022-08-21T02:27:54;42.33;39.67;24.00
70657;PMS5003;58226;51.738;5.852;2022-08-21T02:28:55;37.67;35.00;20.00
70657;PMS5003;58226;51.738;5.852;2022-08-21T02:29:55;33.33;31.33;20.33
70657;PMS5003;58226;51.738;5.852;2022-08-21T02:30:56;36.50;35.50;22.25
70657;PMS5003;58226;51.738;5.852;2022-08-21T02:31:57;36.75;36.00;23.00
70657;PMS5003;58226;51.738;5.852;2022-08-21T02:32:58;39.00;37.00;24.00
70657;PMS5003;58226;51.738;5.852;2022-08-21T02:33:59;38.00;34.67;23.67
70657;PMS5003;58226;51.738;5.852;2022-08-21T02:34:59;37.67;36.00;24.00
70657;PMS5003;58226;51.738;5.852;2022-08-21T02:36:00;30.33;29.33;16.67
70657;PMS5003;58226;51.738;5.852;2022-08-21T02:37:00;42.33;39.33;26.00
70657;PMS5003;58226;51.738;5.852;2022-08-21T02:38:02;36.00;36.00;22.33
70657;PMS5003;58226;51.738;5.852;2022-08-21T02:39:03;39.50;35.00;19.50
70657;PMS5003;58226;51.738;5.852;2022-08-21T02:40:03;41.33;39.00;24.00
70657;PMS5003;58226;51.738;5.852;2022-08-21T02:41:08;38.67;35.67;22.00
70657;PMS5003;58226;51.738;5.852;2022-08-21T02:42:09;36.50;35.00;23.75
70657;PMS5003;58226;51.738;5.852;2022-08-21T02:43:09;28.00;27.67;14.00
70657;PMS5003;58226;51.738;5.852;2022-08-21T02:44:10;35.00;34.00;23.33
70657;PMS5003;58226;51.738;5.852;2022-08-21T02:45:10;35.00;34.00;19.33
70657;PMS5003;58226;51.738;5.852;2022-08-21T02:46:11;34.33;34.33;24.00
70657;PMS5003;58226;51.738;5.852;2022-08-21T02:47:13;38.00;36.00;23.75
70657;PMS5003;58226;51.738;5.852;2022-08-21T02:48:14;43.67;40.33;24.00
70657;PMS5003;58226;51.738;5.852;2022-08-21T02:49:15;39.75;36.75;22.25
70657;PMS5003;58226;51.738;5.852;2022-08-21T02:50:17;37.00;36.00;23.00
70657;PMS5003;58226;51.738;5.852;2022-08-21T02:51:19;37.75;36.25;22.25
70657;PMS5003;58226;51.738;5.852;2022-08-21T02:52:19;36.00;36.00;21.33
70657;PMS5003;58226;51.738;5.852;2022-08-21T02:53:21;37.50;36.25;21.75
70657;PMS5003;58226;51.738;5.852;2022-08-21T02:54:21;37.00;36.00;22.33
70657;PMS5003;58226;51.738;5.852;2022-08-21T02:55:22;37.67;36.00;24.00
70657;PMS5003;58226;51.738;5.852;2022-08-21T02:56:23;40.00;36.00;22.25
70657;PMS5003;58226;51.738;5.852;2022-08-21T02:57:23;40.00;36.00;23.67
70657;PMS5003;58226;51.738;5.852;2022-08-21T02:58:25;36.33;34.00;25.00
70657;PMS5003;58226;51.738;5.852;2022-08-21T02:59:25;39.33;37.33;24.00
70657;PMS5003;58226;51.738;5.852;2022-08-21T03:00:26;39.00;35.67;20.67
70657;PMS5003;58226;51.738;5.852;2022-08-21T03:01:27;13.75;11.00;6.00
70657;PMS5003;58226;51.738;5.852;2022-08-21T03:02:27;35.67;35.67;21.00
70657;PMS5003;58226;51.738;5.852;2022-08-21T03:03:27;41.00;36.33;23.33
70657;PMS5003;58226;51.738;5.852;2022-08-21T03:04:29;41.33;38.33;22.00
70657;PMS5003;58226;51.738;5.852;2022-08-21T03:05:29;37.33;36.00;24.00
70657;PMS5003;58226;51.738;5.852;2022-08-21T03:06:31;39.33;36.00;23.67
70657;PMS5003;58226;51.738;5.852;2022-08-21T03:07:31;48.67;42.00;26.33
70657;PMS5003;58226;51.738;5.852;2022-08-21T03:08:31;38.00;36.00;24.00
70657;PMS5003;58226;51.738;5.852;2022-08-21T03:09:31;45.33;40.33;24.00
70657;PMS5003;58226;51.738;5.852;2022-08-21T03:10:32;39.67;36.67;19.00
70657;PMS5003;58226;51.738;5.852;2022-08-21T03:11:33;43.33;39.33;24.33
70657;PMS5003;58226;51.738;5.852;2022-08-21T03:12:34;37.00;34.33;21.00
70657;PMS5003;58226;51.738;5.852;2022-08-21T03:13:35;41.33;37.67;25.00
70657;PMS5003;58226;51.738;5.852;2022-08-21T03:14:35;46.33;39.33;24.00
70657;PMS5003;58226;51.738;5.852;2022-08-21T03:15:36;42.00;37.67;23.00
70657;PMS5003;58226;51.738;5.852;2022-08-21T03:16:36;43.00;40.00;26.00
70657;PMS5003;58226;51.738;5.852;2022-08-21T03:17:36;48.00;40.00;22.33
70657;PMS5003;58226;51.738;5.852;2022-08-21T03:18:37;43.00;37.67;22.67
70657;PMS5003;58226;51.738;5.852;2022-08-21T03:19:37;42.00;39.33;24.33
70657;PMS5003;58226;51.738;5.852;2022-08-21T03:20:38;37.33;36.00;23.67
70657;PMS5003;58226;51.738;5.852;2022-08-21T03:21:38;45.00;41.33;25.67
70657;PMS5003;58226;51.738;5.852;2022-08-21T03:22:39;40.33;37.00;24.00
70657;PMS5003;58226;51.738;5.852;2022-08-21T03:23:39;34.33;34.33;22.67
70657;PMS5003;58226;51.738;5.852;2022-08-21T03:24:41;41.67;38.67;24.67
70657;PMS5003;58226;51.738;5.852;2022-08-21T03:25:42;47.00;41.00;26.00
70657;PMS5003;58226;51.738;5.852;2022-08-21T03:26:42;43.67;39.33;23.67
70657;PMS5003;58226;51.738;5.852;2022-08-21T03:27:42;41.33;37.33;24.00
70657;PMS5003;58226;51.738;5.852;2022-08-21T03:28:43;31.67;31.33;19.00
70657;PMS5003;58226;51.738;5.852;2022-08-21T03:29:43;42.33;39.67;24.00
70657;PMS5003;58226;51.738;5.852;2022-08-21T03:30:44;44.67;39.33;23.00
70657;PMS5003;58226;51.738;5.852;2022-08-21T03:31:45;41.00;36.67;24.00
70657;PMS5003;58226;51.738;5.852;2022-08-21T03:32:45;41.00;38.33;25.00
70657;PMS5003;58226;51.738;5.852;2022-08-21T03:33:46;45.00;40.00;25.00
70657;PMS5003;58226;51.738;5.852;2022-08-21T03:34:46;39.67;36.33;24.00
70657;PMS5003;58226;51.738;5.852;2022-08-21T03:35:56;47.00;39.00;22.33
70657;PMS5003;58226;51.738;5.852;2022-08-21T03:36:57;42.67;39.67;24.00
70657;PMS5003;58226;51.738;5.852;2022-08-21T03:37:58;46.33;40.33;25.00
70657;PMS5003;58226;51.738;5.852;2022-08-21T03:38:58;49.33;41.67;25.00
70657;PMS5003;58226;51.738;5.852;2022-08-21T03:39:59;38.00;37.00;23.67
70657;PMS5003;58226;51.738;5.852;2022-08-21T03:40:59;41.67;39.00;24.00
70657;PMS5003;58226;51.738;5.852;2022-08-21T03:42:00;42.00;39.33;24.00
70657;PMS5003;58226;51.738;5.852;2022-08-21T03:43:01;45.33;39.33;24.00
70657;PMS5003;58226;51.738;5.852;2022-08-21T03:44:01;36.33;36.00;24.00
70657;PMS5003;58226;51.738;5.852;2022-08-21T03:45:01;40.67;38.67;21.67
70657;PMS5003;58226;51.738;5.852;2022-08-21T03:46:03;43.00;37.33;23.00
70657;PMS5003;58226;51.738;5.852;2022-08-21T03:47:03;36.67;35.00;23.00
70657;PMS5003;58226;51.738;5.852;2022-08-21T03:48:04;46.00;39.67;26.00
70657;PMS5003;58226;51.738;5.852;2022-08-21T03:49:06;42.67;38.67;23.67
70657;PMS5003;58226;51.738;5.852;2022-08-21T03:50:06;43.33;38.33;24.00
70657;PMS5003;58226;51.738;5.852;2022-08-21T03:51:07;41.33;39.33;25.33
70657;PMS5003;58226;51.738;5.852;2022-08-21T03:52:08;30.33;30.00;21.00
70657;PMS5003;58226;51.738;5.852;2022-08-21T03:53:09;47.67;40.33;24.67
70657;PMS5003;58226;51.738;5.852;2022-08-21T03:54:09;39.33;36.00;20.00
70657;PMS5003;58226;51.738;5.852;2022-08-21T03:55:09;47.00;41.00;24.00
70657;PMS5003;58226;51.738;5.852;2022-08-21T03:56:10;40.33;38.00;24.33
70657;PMS5003;58226;51.738;5.852;2022-08-21T03:57:10;50.67;40.67;24.67
70657;PMS5003;58226;51.738;5.852;2022-08-21T03:58:12;39.33;37.00;24.00
70657;PMS5003;58226;51.738;5.852;2022-08-21T03:59:13;49.33;43.00;25.00
70657;PMS5003;58226;51.738;5.852;2022-08-21T04:00:14;41.67;37.67;22.33
70657;PMS5003;58226;51.738;5.852;2022-08-21T04:01:14;44.33;40.00;24.33
70657;PMS5003;58226;51.738;5.852;2022-08-21T04:02:16;38.33;36.00;24.00
70657;PMS5003;58226;51.738;5.852;2022-08-21T04:03:17;41.67;38.33;23.00
70657;PMS5003;58226;51.738;5.852;2022-08-21T04:04:17;40.67;37.67;23.00
70657;PMS5003;58226;51.738;5.852;2022-08-21T04:05:18;42.33;39.00;24.00
70657;PMS5003;58226;51.738;5.852;2022-08-21T04:06:27;45.00;40.00;24.00
70657;PMS5003;58226;51.738;5.852;2022-08-21T04:07:27;33.33;32.00;20.67
70657;PMS5003;58226;51.738;5.852;2022-08-21T04:08:27;38.67;36.67;22.33
70657;PMS5003;58226;51.738;5.852;2022-08-21T04:09:27;40.67;38.00;25.00
70657;PMS5003;58226;51.738;5.852;2022-08-21T04:10:29;49.67;40.33;24.00
70657;PMS5003;58226;51.738;5.852;2022-08-21T04:11:30;47.33;42.00;25.67
70657;PMS5003;58226;51.738;5.852;2022-08-21T04:12:30;42.67;39.67;24.00
70657;PMS5003;58226;51.738;5.852;2022-08-21T04:13:30;43.33;40.00;25.33
70657;PMS5003;58226;51.738;5.852;2022-08-21T04:14:31;46.67;42.00;26.00
70657;PMS5003;58226;51.738;5.852;2022-08-21T04:15:31;41.33;39.00;24.00
70657;PMS5003;58226;51.738;5.852;2022-08-21T04:16:32;44.33;40.00;24.00
70657;PMS5003;58226;51.738;5.852;2022-08-21T04:17:32;47.00;41.67;24.00
70657;PMS5003;58226;51.738;5.852;2022-08-21T04:18:33;38.33;37.00;24.00
70657;PMS5003;58226;51.738;5.852;2022-08-21T04:19:33;47.33;42.33;26.00
70657;PMS5003;58226;51.738;5.852;2022-08-21T04:20:33;39.67;36.67;24.00
70657;PMS5003;58226;51.738;5.852;2022-08-21T04:21:35;39.67;36.67;24.00
70657;PMS5003;58226;51.738;5.852;2022-08-21T04:22:36;47.67;41.33;25.33
70657;PMS5003;58226;51.738;5.852;2022-08-21T04:23:36;44.33;41.00;24.00
70657;PMS5003;58226;51.738;5.852;2022-08-21T04:24:37;47.00;40.00;25.00
70657;PMS5003;58226;51.738;5.852;2022-08-21T04:25:37;38.67;37.00;21.67
70657;PMS5003;58226;51.738;5.852;2022-08-21T04:26:38;48.00;41.00;25.33
70657;PMS5003;58226;51.738;5.852;2022-08-21T04:27:39;48.00;42.00;26.00
70657;PMS5003;58226;51.738;5.852;2022-08-21T04:28:40;48.00;42.00;24.00
70657;PMS5003;58226;51.738;5.852;2022-08-21T04:29:40;43.00;38.33;24.67
70657;PMS5003;58226;51.738;5.852;2022-08-21T04:30:40;46.00;40.33;23.00
70657;PMS5003;58226;51.738;5.852;2022-08-21T04:31:41;49.00;42.00;26.00
70657;PMS5003;58226;51.738;5.852;2022-08-21T04:32:44;44.33;40.33;26.33
70657;PMS5003;58226;51.738;5.852;2022-08-21T04:33:44;44.00;40.00;25.00
70657;PMS5003;58226;51.738;5.852;2022-08-21T04:34:44;48.00;42.00;24.00
70657;PMS5003;58226;51.738;5.852;2022-08-21T04:35:45;49.00;43.00;26.33
70657;PMS5003;58226;51.738;5.852;2022-08-21T04:36:45;53.00;43.00;23.33
70657;PMS5003;58226;51.738;5.852;2022-08-21T04:37:45;48.25;43.00;27.75
70657;PMS5003;58226;51.738;5.852;2022-08-21T04:38:45;58.00;48.25;28.75
70657;PMS5003;58226;51.738;5.852;2022-08-21T04:39:46;54.25;45.50;27.00
70657;PMS5003;58226;51.738;5.852;2022-08-21T04:40:46;49.00;42.50;26.00
70657;PMS5003;58226;51.738;5.852;2022-08-21T04:41:48;49.33;43.00;26.00
70657;PMS5003;58226;51.738;5.852;2022-08-21T04:42:50;57.00;48.00;29.00
70657;PMS5003;58226;51.738;5.852;2022-08-21T04:43:51;55.50;45.75;27.00
70657;PMS5003;58226;51.738;5.852;2022-08-21T04:44:51;57.25;48.00;28.00
70657;PMS5003;58226;51.738;5.852;2022-08-21T04:45:51;55.33;44.33;26.00
70657;PMS5003;58226;51.738;5.852;2022-08-21T04:46:52;48.00;41.00;26.00
70657;PMS5003;58226;51.738;5.852;2022-08-21T04:47:53;57.00;48.00;28.00
70657;PMS5003;58226;51.738;5.852;2022-08-21T04:48:53;54.67;46.00;27.00
70657;PMS5003;58226;51.738;5.852;2022-08-21T04:49:54;50.67;43.00;27.33
70657;PMS5003;58226;51.738;5.852;2022-08-21T04:50:57;54.50;46.00;27.25
70657;PMS5003;58226;51.738;5.852;2022-08-21T04:51:57;57.67;46.00;30.33
70657;PMS5003;58226;51.738;5.852;2022-08-21T04:52:58;48.67;41.00;25.33
70657;PMS5003;58226;51.738;5.852;2022-08-21T04:54:06;44.00;38.67;23.67
70657;PMS5003;58226;51.738;5.852;2022-08-21T04:55:08;56.00;47.33;27.00
70657;PMS5003;58226;51.738;5.852;2022-08-21T04:56:18;51.67;44.33;26.33
70657;PMS5003;58226;51.738;5.852;2022-08-21T04:57:19;53.33;43.00;27.33
70657;PMS5003;58226;51.738;5.852;2022-08-21T04:58:19;51.00;42.00;26.00
70657;PMS5003;58226;51.738;5.852;2022-08-21T04:59:21;54.67;45.00;27.00
70657;PMS5003;58226;51.738;5.852;2022-08-21T05:00:22;50.67;43.00;27.00
70657;PMS5003;58226;51.738;5.852;2022-08-21T05:01:24;56.00;46.00;27.00
70657;PMS5003;58226;51.738;5.852;2022-08-21T05:02:27;55.00;44.00;28.00
70657;PMS5003;58226;51.738;5.852;2022-08-21T05:03:27;49.33;42.33;24.00
70657;PMS5003;58226;51.738;5.852;2022-08-21T05:04:29;51.33;44.00;28.00
70657;PMS5003;58226;51.738;5.852;2022-08-21T05:05:30;57.67;48.67;27.00
70657;PMS5003;58226;51.738;5.852;2022-08-21T05:06:30;46.67;40.67;26.00
70657;PMS5003;58226;51.738;5.852;2022-08-21T05:07:33;49.67;42.33;26.00
70657;PMS5003;58226;51.738;5.852;2022-08-21T05:08:34;49.67;43.00;25.33
70657;PMS5003;58226;51.738;5.852;2022-08-21T05:09:34;50.00;43.67;23.67
70657;PMS5003;58226;51.738;5.852;2022-08-21T05:10:35;53.00;43.00;27.00
70657;PMS5003;58226;51.738;5.852;2022-08-21T05:11:35;54.00;44.67;28.00
70657;PMS5003;58226;51.738;5.852;2022-08-21T05:12:37;49.00;42.67;28.00
70657;PMS5003;58226;51.738;5.852;2022-08-21T05:13:37;52.00;44.33;26.00
70657;PMS5003;58226;51.738;5.852;2022-08-21T05:14:37;52.33;44.00;26.00
70657;PMS5003;58226;51.738;5.852;2022-08-21T05:15:38;57.25;46.75;29.00
70657;PMS5003;58226;51.738;5.852;2022-08-21T05:16:38;52.67;45.00;27.00
70657;PMS5003;58226;51.738;5.852;2022-08-21T05:17:39;55.50;45.00;26.75
70657;PMS5003;58226;51.738;5.852;2022-08-21T05:18:39;52.33;44.00;28.00
70657;PMS5003;58226;51.738;5.852;2022-08-21T05:19:39;51.00;43.33;25.00
70657;PMS5003;58226;51.738;5.852;2022-08-21T05:20:40;53.00;43.33;26.33
70657;PMS5003;58226;51.738;5.852;2022-08-21T05:21:44;52.67;44.67;27.00
70657;PMS5003;58226;51.738;5.852;2022-08-21T05:22:45;53.33;45.33;26.67
70657;PMS5003;58226;51.738;5.852;2022-08-21T05:23:45;55.33;45.67;27.00
70657;PMS5003;58226;51.738;5.852;2022-08-21T05:24:45;52.00;44.00;24.33
70657;PMS5003;58226;51.738;5.852;2022-08-21T05:25:45;55.33;46.00;28.00
70657;PMS5003;58226;51.738;5.852;2022-08-21T05:26:46;55.67;46.00;27.33
70657;PMS5003;58226;51.738;5.852;2022-08-21T05:27:46;50.33;43.67;27.00
70657;PMS5003;58226;51.738;5.852;2022-08-21T05:28:46;50.67;44.00;26.00
70657;PMS5003;58226;51.738;5.852;2022-08-21T05:29:46;53.67;45.00;28.00
70657;PMS5003;58226;51.738;5.852;2022-08-21T05:30:47;57.33;49.00;31.00
70657;PMS5003;58226;51.738;5.852;2022-08-21T05:31:47;55.33;46.00;27.67
70657;PMS5003;58226;51.738;5.852;2022-08-21T05:32:47;53.00;45.67;28.00
70657;PMS5003;58226;51.738;5.852;2022-08-21T05:33:48;50.33;43.33;28.00
70657;PMS5003;58226;51.738;5.852;2022-08-21T05:34:48;56.50;47.00;28.00
70657;PMS5003;58226;51.738;5.852;2022-08-21T05:35:51;58.00;48.00;27.33
70657;PMS5003;58226;51.738;5.852;2022-08-21T05:36:52;47.33;42.00;27.67
70657;PMS5003;58226;51.738;5.852;2022-08-21T05:37:52;45.00;39.33;23.00
70657;PMS5003;58226;51.738;5.852;2022-08-21T05:38:53;52.00;44.67;27.00
70657;PMS5003;58226;51.738;5.852;2022-08-21T05:39:53;48.67;41.33;27.00
70657;PMS5003;58226;51.738;5.852;2022-08-21T05:40:54;56.00;47.33;27.67
70657;PMS5003;58226;51.738;5.852;2022-08-21T05:41:54;49.00;42.67;26.00
70657;PMS5003;58226;51.738;5.852;2022-08-21T05:42:55;52.33;45.00;27.00